createdAt,value
2023-05-10T00:00:27.065Z,9.67
2023-05-10T00:01:27.106Z,9.66
2023-05-10T00:02:27.338Z,9.63
2023-05-10T00:03:27.400Z,9.60
2023-05-10T00:04:27.357Z,9.57
2023-05-10T00:05:27.444Z,9.55
2023-05-10T00:06:27.531Z,9.54
2023-05-10T00:07:27.586Z,9.55
2023-05-10T00:08:27.667Z,9.56
2023-05-10T00:09:27.758Z,9.56
2023-05-10T00:10:27.842Z,9.57
2023-05-10T00:11:27.923Z,9.58
2023-05-10T00:12:28.007Z,9.59
2023-05-10T00:13:28.145Z,9.60
2023-05-10T00:14:28.147Z,9.61
2023-05-10T00:15:28.239Z,9.61
2023-05-10T00:16:28.387Z,9.61
2023-05-10T00:17:28.413Z,9.60
2023-05-10T00:18:28.478Z,9.59
2023-05-10T00:19:28.573Z,9.58
2023-05-10T00:20:28.637Z,9.57
2023-05-10T00:21:28.722Z,9.56
2023-05-10T00:22:28.802Z,9.56
2023-05-10T00:23:28.866Z,9.56
2023-05-10T00:24:28.975Z,9.56
2023-05-10T00:25:29.049Z,9.56
2023-05-10T00:26:29.138Z,9.55
2023-05-10T00:27:29.193Z,9.54
2023-05-10T00:28:29.289Z,9.52
2023-05-10T00:29:29.382Z,9.50
2023-05-10T00:30:29.465Z,9.48
2023-05-10T00:31:29.584Z,9.45
2023-05-10T00:32:29.685Z,9.42
2023-05-10T00:33:29.760Z,9.41
2023-05-10T00:34:29.856Z,9.40
2023-05-10T00:35:29.872Z,9.40
2023-05-10T00:36:29.991Z,9.41
2023-05-10T00:37:30.060Z,9.41
2023-05-10T00:38:30.141Z,9.41
2023-05-10T00:39:30.216Z,9.41
2023-05-10T00:40:30.319Z,9.41
2023-05-10T00:41:30.394Z,9.41
2023-05-10T00:42:30.483Z,9.40
2023-05-10T00:43:30.575Z,9.40
2023-05-10T00:44:30.667Z,9.40
2023-05-10T00:45:30.750Z,9.39
2023-05-10T00:46:30.999Z,9.37
2023-05-10T00:47:30.944Z,9.35
2023-05-10T00:48:31.005Z,9.33
2023-05-10T00:49:31.066Z,9.30
2023-05-10T00:50:31.152Z,9.29
2023-05-10T00:51:31.230Z,9.28
2023-05-10T00:52:31.307Z,9.26
2023-05-10T00:53:31.388Z,9.25
2023-05-10T00:54:31.478Z,9.23
2023-05-10T00:55:31.566Z,9.20
2023-05-10T00:56:31.684Z,9.17
2023-05-10T00:57:31.767Z,9.16
2023-05-10T00:58:31.833Z,9.15
2023-05-10T00:59:31.919Z,9.13
2023-05-10T01:00:32.000Z,9.10
2023-05-10T01:01:32.107Z,9.09
2023-05-10T01:02:32.204Z,9.08
2023-05-10T01:03:32.356Z,9.07
2023-05-10T01:04:32.334Z,9.05
2023-05-10T01:05:32.391Z,9.05
2023-05-10T01:06:32.472Z,9.04
2023-05-10T01:07:32.558Z,9.03
2023-05-10T01:08:32.638Z,9.03
2023-05-10T01:09:32.722Z,9.03
2023-05-10T01:10:32.803Z,9.04
2023-05-10T01:11:32.889Z,9.04
2023-05-10T01:12:33.015Z,9.01
2023-05-10T01:13:33.041Z,8.99
2023-05-10T01:14:33.111Z,8.98
2023-05-10T01:15:33.202Z,8.97
2023-05-10T01:16:33.308Z,8.96
2023-05-10T01:17:33.427Z,8.93
2023-05-10T01:18:33.458Z,8.90
2023-05-10T01:19:33.528Z,8.89
2023-05-10T01:20:33.614Z,8.90
2023-05-10T01:21:33.693Z,8.91
2023-05-10T01:22:33.775Z,8.92
2023-05-10T01:23:39.840Z,8.91
2023-05-10T01:24:33.947Z,8.91
2023-05-10T01:25:34.725Z,8.91
2023-05-10T01:26:34.779Z,8.90
2023-05-10T01:27:34.183Z,8.90
2023-05-10T01:28:34.278Z,8.92
2023-05-10T01:29:34.374Z,8.94
2023-05-10T01:30:34.449Z,8.95
2023-05-10T01:31:34.592Z,8.97
2023-05-10T01:32:34.657Z,8.98
2023-05-10T01:33:34.721Z,8.98
2023-05-10T01:34:34.799Z,8.98
2023-05-10T01:35:34.891Z,8.98
2023-05-10T01:36:34.978Z,8.97
2023-05-10T01:37:35.072Z,8.97
2023-05-10T01:38:35.172Z,8.97
2023-05-10T01:39:35.247Z,8.97
2023-05-10T01:40:35.334Z,8.97
2023-05-10T01:41:35.414Z,8.97
2023-05-10T01:42:35.507Z,8.97
2023-05-10T01:43:35.585Z,8.97
2023-05-10T01:44:35.662Z,8.97
2023-05-10T01:45:35.739Z,8.96
2023-05-10T01:46:35.858Z,8.94
2023-05-10T01:47:35.966Z,8.92
2023-05-10T01:48:35.993Z,8.91
2023-05-10T01:49:36.067Z,8.91
2023-05-10T01:50:36.151Z,8.91
2023-05-10T01:51:36.230Z,8.91
2023-05-10T01:52:36.303Z,8.92
2023-05-10T01:53:36.370Z,8.93
2023-05-10T01:54:36.460Z,8.94
2023-05-10T01:55:36.647Z,8.94
2023-05-10T01:56:36.635Z,8.93
2023-05-10T01:57:36.706Z,8.91
2023-05-10T01:58:36.752Z,8.89
2023-05-10T01:59:36.860Z,8.86
2023-05-10T02:00:36.903Z,8.84
2023-05-10T02:01:36.970Z,8.82
2023-05-10T02:02:37.122Z,8.82
2023-05-10T02:03:37.233Z,8.82
2023-05-10T02:04:37.213Z,8.81
2023-05-10T02:05:37.294Z,8.80
2023-05-10T02:06:37.385Z,8.79
2023-05-10T02:07:37.478Z,8.79
2023-05-10T02:08:37.541Z,8.79
2023-05-10T02:09:37.629Z,8.79
2023-05-10T02:10:37.698Z,8.79
2023-05-10T02:11:37.777Z,8.80
2023-05-10T02:12:37.881Z,8.80
2023-05-10T02:13:37.957Z,8.79
2023-05-10T02:14:38.033Z,8.79
2023-05-10T02:15:38.105Z,8.79
2023-05-10T02:16:38.220Z,8.80
2023-05-10T02:17:38.325Z,8.81
2023-05-10T02:18:38.356Z,8.81
2023-05-10T02:19:38.414Z,8.79
2023-05-10T02:20:38.494Z,8.76
2023-05-10T02:21:38.578Z,8.73
2023-05-10T02:22:38.633Z,8.70
2023-05-10T02:23:38.731Z,8.67
2023-05-10T02:24:38.852Z,8.65
2023-05-10T02:25:38.913Z,8.65
2023-05-10T02:26:39.000Z,8.65
2023-05-10T02:27:39.083Z,8.66
2023-05-10T02:28:39.165Z,8.68
2023-05-10T02:29:39.280Z,8.68
2023-05-10T02:30:39.334Z,8.66
2023-05-10T02:31:39.430Z,8.66
2023-05-10T02:32:39.520Z,8.65
2023-05-10T02:33:39.587Z,8.66
2023-05-10T02:34:39.658Z,8.67
2023-05-10T02:35:39.761Z,8.67
2023-05-10T02:36:39.838Z,8.65
2023-05-10T02:37:39.916Z,8.63
2023-05-10T02:38:39.997Z,8.61
2023-05-10T02:39:40.067Z,8.59
2023-05-10T02:40:40.169Z,8.56
2023-05-10T02:41:40.272Z,8.52
2023-05-10T02:42:40.333Z,8.50
2023-05-10T02:43:40.438Z,8.48
2023-05-10T02:44:40.521Z,8.46
2023-05-10T02:45:40.627Z,8.45
2023-05-10T02:46:40.691Z,8.43
2023-05-10T02:47:40.835Z,8.43
2023-05-10T02:48:40.854Z,8.43
2023-05-10T02:49:40.930Z,8.45
2023-05-10T02:50:41.032Z,8.47
2023-05-10T02:51:41.095Z,8.48
2023-05-10T02:52:41.175Z,8.48
2023-05-10T02:53:41.259Z,8.48
2023-05-10T02:54:41.307Z,8.46
2023-05-10T02:55:41.402Z,8.43
2023-05-10T02:56:41.473Z,8.42
2023-05-10T02:57:41.553Z,8.42
2023-05-10T02:58:41.625Z,8.43
2023-05-10T02:59:41.700Z,8.43
2023-05-10T03:00:41.776Z,8.43
2023-05-10T03:01:41.906Z,8.42
2023-05-10T03:02:41.953Z,8.41
2023-05-10T03:03:42.008Z,8.40
2023-05-10T03:04:42.208Z,8.38
2023-05-10T03:05:42.148Z,8.37
2023-05-10T03:06:42.234Z,8.37
2023-05-10T03:07:42.350Z,8.38
2023-05-10T03:08:42.368Z,8.38
2023-05-10T03:09:42.463Z,8.38
2023-05-10T03:10:42.554Z,8.39
2023-05-10T03:11:42.654Z,8.39
2023-05-10T03:12:42.744Z,8.39
2023-05-10T03:13:42.801Z,8.40
2023-05-10T03:14:42.866Z,8.43
2023-05-10T03:15:42.977Z,8.45
2023-05-10T03:16:44.914Z,8.46
2023-05-10T03:17:43.143Z,8.46
2023-05-10T03:18:43.197Z,8.45
2023-05-10T03:19:43.296Z,8.44
2023-05-10T03:20:43.344Z,8.44
2023-05-10T03:21:43.428Z,8.43
2023-05-10T03:22:43.536Z,8.42
2023-05-10T03:23:43.608Z,8.41
2023-05-10T03:24:43.690Z,8.40
2023-05-10T03:25:43.788Z,8.40
2023-05-10T03:26:43.841Z,8.40
2023-05-10T03:27:43.923Z,8.41
2023-05-10T03:28:44.065Z,8.41
2023-05-10T03:29:44.146Z,8.42
2023-05-10T03:30:44.165Z,8.43
2023-05-10T03:31:44.313Z,8.44
2023-05-10T03:32:44.364Z,8.44
2023-05-10T03:33:44.381Z,8.44
2023-05-10T03:34:44.480Z,8.45
2023-05-10T03:35:44.548Z,8.46
2023-05-10T03:36:44.629Z,8.47
2023-05-10T03:37:44.736Z,8.49
2023-05-10T03:38:44.786Z,8.52
2023-05-10T03:39:44.857Z,8.57
2023-05-10T03:40:44.946Z,8.63
2023-05-10T03:41:45.024Z,8.68
2023-05-10T03:42:45.132Z,8.72
2023-05-10T03:43:45.183Z,8.77
2023-05-10T03:44:45.231Z,8.82
2023-05-10T03:45:45.326Z,8.88
2023-05-10T03:46:45.448Z,8.95
2023-05-10T03:47:45.517Z,9.01
2023-05-10T03:48:45.590Z,9.09
2023-05-10T03:49:45.684Z,9.15
2023-05-10T03:50:45.755Z,9.20
2023-05-10T03:51:45.827Z,9.26
2023-05-10T03:52:45.903Z,9.35
2023-05-10T03:53:45.999Z,9.44
2023-05-10T03:54:46.069Z,9.52
2023-05-10T03:55:46.159Z,9.61
2023-05-10T03:56:46.236Z,9.68
2023-05-10T03:57:46.313Z,9.74
2023-05-10T03:58:46.424Z,9.78
2023-05-10T03:59:46.470Z,9.82
2023-05-10T04:00:46.547Z,9.85
2023-05-10T04:01:46.656Z,9.87
2023-05-10T04:02:46.782Z,9.89
2023-05-10T04:03:46.859Z,9.91
2023-05-10T04:04:46.860Z,9.91
2023-05-10T04:05:46.968Z,9.96
2023-05-10T04:06:47.051Z,10.06
2023-05-10T04:07:47.118Z,10.19
2023-05-10T04:08:47.211Z,10.30
2023-05-10T04:09:47.314Z,10.37
2023-05-10T04:10:47.399Z,10.43
2023-05-10T04:11:47.491Z,10.49
2023-05-10T04:12:47.609Z,10.50
2023-05-10T04:13:47.658Z,10.52
2023-05-10T04:14:47.705Z,10.57
2023-05-10T04:15:47.796Z,10.63
2023-05-10T04:16:47.961Z,10.70
2023-05-10T04:17:47.961Z,10.79
2023-05-10T04:18:48.045Z,10.87
2023-05-10T04:19:48.167Z,10.92
2023-05-10T04:20:48.194Z,10.98
2023-05-10T04:21:48.287Z,11.02
2023-05-10T04:22:48.388Z,11.03
2023-05-10T04:23:48.476Z,11.03
2023-05-10T04:24:48.571Z,11.06
2023-05-10T04:25:48.673Z,11.14
2023-05-10T04:26:48.749Z,11.22
2023-05-10T04:27:48.840Z,11.28
2023-05-10T04:28:48.930Z,11.35
2023-05-10T04:29:49.006Z,11.42
2023-05-10T04:30:49.176Z,11.46
2023-05-10T04:31:49.158Z,11.49
2023-05-10T04:34:15.078Z,12.63
2023-05-10T04:35:16.723Z,12.21
2023-05-10T04:36:16.222Z,12.02
2023-05-10T04:37:16.315Z,11.98
2023-05-10T04:38:16.366Z,12.01
2023-05-10T04:39:16.452Z,12.05
2023-05-10T04:40:16.735Z,12.06
2023-05-10T04:41:16.637Z,12.09
2023-05-10T04:42:16.703Z,12.14
2023-05-10T04:43:16.821Z,12.16
2023-05-10T04:44:16.862Z,12.19
2023-05-10T04:45:16.949Z,12.20
2023-05-10T04:46:17.090Z,12.22
2023-05-10T04:47:17.117Z,12.25
2023-05-10T04:49:38.902Z,13.32
2023-05-10T04:50:39.542Z,12.91
2023-05-10T04:51:39.047Z,12.68
2023-05-10T04:52:39.136Z,12.57
2023-05-10T04:53:39.182Z,12.54
2023-05-10T04:54:39.281Z,12.55
2023-05-10T04:55:39.350Z,12.58
2023-05-10T04:56:39.421Z,12.61
2023-05-10T04:57:39.521Z,12.62
2023-05-10T04:58:39.593Z,12.60
2023-05-10T04:59:39.710Z,12.55
2023-05-10T05:00:39.718Z,12.53
2023-05-10T05:01:39.822Z,12.56
2023-05-10T05:02:39.995Z,12.57
2023-05-10T05:03:40.095Z,12.60
2023-05-10T05:04:40.073Z,12.68
2023-05-10T05:05:40.166Z,12.81
2023-05-10T05:06:40.220Z,12.98
2023-05-10T05:07:40.306Z,13.11
2023-05-10T05:08:40.417Z,13.17
2023-05-10T05:09:40.468Z,13.19
2023-05-10T05:10:40.552Z,13.19
2023-05-10T05:11:40.639Z,13.20
2023-05-10T05:12:40.735Z,13.27
2023-05-10T05:13:40.819Z,13.35
2023-05-10T05:14:40.921Z,13.43
2023-05-10T05:15:40.992Z,13.51
2023-05-10T05:16:41.085Z,13.57
2023-05-10T05:17:41.183Z,13.64
2023-05-10T05:18:41.266Z,13.72
2023-05-10T05:19:41.335Z,13.79
2023-05-10T05:20:41.396Z,13.88
2023-05-10T05:21:41.485Z,14.00
2023-05-10T05:22:41.582Z,14.10
2023-05-10T05:23:41.634Z,14.14
2023-05-10T05:24:41.734Z,14.16
2023-05-10T05:25:41.796Z,14.26
2023-05-10T05:26:41.890Z,14.32
2023-05-10T05:27:41.951Z,14.30
2023-05-10T05:28:42.063Z,14.25
2023-05-10T05:29:42.126Z,14.28
2023-05-10T05:30:42.264Z,14.37
2023-05-10T05:31:42.310Z,14.43
2023-05-10T05:32:42.390Z,14.48
2023-05-10T05:33:42.426Z,14.57
2023-05-10T05:34:42.511Z,14.66
2023-05-10T05:35:42.602Z,14.65
2023-05-10T05:36:42.695Z,14.63
2023-05-10T05:37:42.786Z,14.64
2023-05-10T05:38:42.890Z,14.69
2023-05-10T05:39:42.956Z,14.78
2023-05-10T05:40:43.061Z,14.85
2023-05-10T05:41:43.132Z,14.88
2023-05-10T05:42:43.207Z,14.92
2023-05-10T05:43:43.254Z,15.03
2023-05-10T05:44:43.348Z,15.16
2023-05-10T05:45:43.524Z,15.23
2023-05-10T05:46:43.522Z,15.23
2023-05-10T05:47:43.608Z,15.17
2023-05-10T05:48:43.650Z,15.05
2023-05-10T05:49:43.739Z,14.94
2023-05-10T05:50:43.838Z,14.98
2023-05-10T05:51:43.904Z,15.10
2023-05-10T05:52:44.006Z,15.16
2023-05-10T05:53:44.109Z,15.13
2023-05-10T05:54:44.175Z,15.09
2023-05-10T05:55:44.268Z,15.09
2023-05-10T05:56:44.361Z,15.19
2023-05-10T05:57:44.477Z,15.28
2023-05-10T05:58:44.526Z,15.35
2023-05-10T05:59:44.623Z,15.51
2023-05-10T06:00:44.729Z,15.69
2023-05-10T06:01:44.819Z,15.86
2023-05-10T06:02:45.123Z,16.05
2023-05-10T06:03:44.963Z,16.10
2023-05-10T06:04:45.013Z,15.98
2023-05-10T06:05:45.099Z,15.84
2023-05-10T06:06:45.176Z,15.70
2023-05-10T06:07:45.277Z,15.56
2023-05-10T06:08:45.364Z,15.39
2023-05-10T06:09:45.438Z,15.18
2023-05-10T06:10:45.510Z,14.99
2023-05-10T06:11:45.705Z,14.88
2023-05-10T06:12:45.637Z,14.84
2023-05-10T06:13:45.771Z,14.84
2023-05-10T06:14:45.821Z,14.81
2023-05-10T06:15:45.910Z,14.77
2023-05-10T06:16:46.040Z,14.71
2023-05-10T06:17:46.110Z,14.68
2023-05-10T06:18:46.165Z,14.69
2023-05-10T06:19:46.276Z,14.70
2023-05-10T06:20:46.339Z,14.72
2023-05-10T06:21:46.417Z,14.73
2023-05-10T06:22:46.497Z,14.69
2023-05-10T06:23:46.596Z,14.63
2023-05-10T06:24:46.685Z,14.55
2023-05-10T06:25:46.782Z,14.51
2023-05-10T06:26:46.881Z,14.51
2023-05-10T06:27:50.952Z,14.53
2023-05-10T06:28:47.058Z,14.59
2023-05-10T06:29:47.152Z,14.63
2023-05-10T06:30:47.256Z,14.66
2023-05-10T06:31:47.417Z,14.70
2023-05-10T06:32:47.414Z,14.78
2023-05-10T06:33:47.456Z,14.88
2023-05-10T06:34:47.543Z,14.97
2023-05-10T06:35:47.613Z,15.04
2023-05-10T06:36:47.721Z,15.07
2023-05-10T06:37:47.765Z,15.06
2023-05-10T06:38:47.867Z,15.05
2023-05-10T06:39:47.957Z,15.09
2023-05-10T06:40:48.048Z,15.13
2023-05-10T06:41:48.124Z,15.15
2023-05-10T06:42:48.214Z,15.19
2023-05-10T06:43:48.306Z,15.26
2023-05-10T06:44:48.411Z,15.37
2023-05-10T06:45:48.457Z,15.54
2023-05-10T06:46:48.683Z,15.77
2023-05-10T06:47:48.665Z,16.03
2023-05-10T06:48:48.693Z,16.30
2023-05-10T06:49:48.779Z,16.50
2023-05-10T06:50:48.872Z,16.64
2023-05-10T06:51:48.994Z,16.73
2023-05-10T06:52:49.278Z,16.76
2023-05-10T06:53:49.290Z,16.79
2023-05-10T06:54:49.222Z,16.89
2023-05-10T06:55:49.314Z,17.13
2023-05-10T06:56:49.419Z,17.32
2023-05-10T06:57:49.509Z,17.41
2023-05-10T06:58:49.602Z,17.54
2023-05-10T06:59:49.659Z,17.79
2023-05-10T07:00:49.741Z,18.00
2023-05-10T07:01:49.865Z,18.17
2023-05-10T07:02:49.905Z,18.33
2023-05-10T07:03:49.928Z,18.42
2023-05-10T07:04:50.106Z,18.35
2023-05-10T07:05:50.092Z,18.32
2023-05-10T07:06:50.182Z,18.39
2023-05-10T07:07:50.283Z,18.38
2023-05-10T07:08:50.389Z,18.19
2023-05-10T07:09:50.404Z,18.04
2023-05-10T07:10:50.500Z,17.96
2023-05-10T07:11:50.615Z,18.04
2023-05-10T07:12:50.869Z,18.24
2023-05-10T07:13:50.751Z,18.40
2023-05-10T07:14:50.830Z,18.58
2023-05-10T07:15:50.935Z,18.80
2023-05-10T07:16:50.944Z,18.95
2023-05-10T07:17:51.150Z,18.98
2023-05-10T07:18:51.134Z,18.88
2023-05-10T07:19:51.228Z,18.70
2023-05-10T07:20:51.341Z,18.47
2023-05-10T07:21:51.423Z,18.24
2023-05-10T07:22:51.511Z,18.10
2023-05-10T07:23:51.639Z,18.11
2023-05-10T07:24:51.690Z,18.27
2023-05-10T07:25:51.777Z,18.50
2023-05-10T07:26:51.889Z,18.70
2023-05-10T07:27:51.962Z,18.78
2023-05-10T07:28:52.050Z,18.72
2023-05-10T07:29:52.124Z,18.59
2023-05-10T07:30:52.222Z,18.45
2023-05-10T07:31:52.360Z,18.33
2023-05-10T07:32:52.425Z,18.17
2023-05-10T07:33:52.417Z,18.06
2023-05-10T07:34:52.482Z,18.08
2023-05-10T07:35:52.613Z,18.04
2023-05-10T07:36:52.668Z,17.87
2023-05-10T07:37:52.758Z,17.65
2023-05-10T07:38:52.879Z,17.51
2023-05-10T07:39:52.921Z,17.47
2023-05-10T07:40:53.012Z,17.43
2023-05-10T07:41:53.134Z,17.41
2023-05-10T07:42:53.179Z,17.48
2023-05-10T07:43:53.305Z,17.57
2023-05-10T07:44:53.399Z,17.63
2023-05-10T07:45:56.039Z,17.72
2023-05-10T07:46:53.543Z,17.81
2023-05-10T07:47:53.677Z,17.80
2023-05-10T07:48:53.679Z,17.70
2023-05-10T07:49:53.779Z,17.67
2023-05-10T07:50:53.863Z,17.68
2023-05-10T07:51:53.913Z,17.67
2023-05-10T07:52:54.006Z,17.63
2023-05-10T07:53:54.100Z,17.62
2023-05-10T07:54:54.205Z,17.65
2023-05-10T07:55:54.269Z,17.66
2023-05-10T07:56:54.354Z,17.61
2023-05-10T07:57:54.436Z,17.56
2023-05-10T07:58:54.503Z,17.59
2023-05-10T07:59:54.557Z,17.69
2023-05-10T08:00:54.668Z,17.83
2023-05-10T08:01:54.752Z,17.96
2023-05-10T08:02:54.929Z,17.91
2023-05-10T08:03:55.020Z,17.77
2023-05-10T08:04:54.966Z,17.69
2023-05-10T08:05:55.252Z,17.78
2023-05-10T08:06:55.124Z,17.68
2023-05-10T08:07:55.210Z,17.48
2023-05-10T08:08:55.308Z,17.47
2023-05-10T08:09:55.363Z,17.56
2023-05-10T08:10:55.460Z,17.63
2023-05-10T08:11:55.519Z,17.65
2023-05-10T08:12:55.622Z,17.69
2023-05-10T08:13:55.711Z,17.68
2023-05-10T08:14:55.834Z,17.57
2023-05-10T08:15:55.922Z,17.40
2023-05-10T08:16:55.989Z,17.33
2023-05-10T08:17:56.096Z,17.38
2023-05-10T08:18:56.254Z,17.43
2023-05-10T08:19:56.209Z,17.46
2023-05-10T08:20:56.315Z,17.46
2023-05-10T08:21:56.371Z,17.46
2023-05-10T08:22:56.440Z,17.49
2023-05-10T08:23:56.532Z,17.54
2023-05-10T08:24:56.642Z,17.65
2023-05-10T08:25:56.730Z,17.75
2023-05-10T08:26:56.798Z,17.73
2023-05-10T08:27:56.899Z,17.69
2023-05-10T08:28:56.954Z,17.64
2023-05-10T08:29:57.111Z,17.59
2023-05-10T08:30:57.149Z,17.57
2023-05-10T08:31:57.216Z,17.50
2023-05-10T08:32:57.311Z,17.36
2023-05-10T08:33:57.463Z,17.16
2023-05-10T08:34:57.414Z,16.99
2023-05-10T08:35:57.516Z,16.83
2023-05-10T08:36:57.584Z,16.68
2023-05-10T08:37:57.672Z,16.57
2023-05-10T08:38:57.745Z,16.46
2023-05-10T08:39:57.846Z,16.29
2023-05-10T08:40:58.044Z,16.10
2023-05-10T08:41:57.994Z,15.90
2023-05-10T08:42:58.120Z,15.85
2023-05-10T08:43:58.177Z,15.91
2023-05-10T08:44:58.294Z,16.02
2023-05-10T08:45:58.382Z,16.10
2023-05-10T08:46:58.442Z,16.17
2023-05-10T08:47:58.550Z,16.26
2023-05-10T08:48:58.588Z,16.32
2023-05-10T08:49:58.642Z,16.32
2023-05-10T08:50:58.743Z,16.31
2023-05-10T08:51:58.818Z,16.32
2023-05-10T08:52:58.901Z,16.27
2023-05-10T08:53:59.009Z,16.12
2023-05-10T08:54:59.069Z,15.87
2023-05-10T08:55:59.114Z,15.71
2023-05-10T08:56:59.224Z,15.70
2023-05-10T08:57:59.264Z,15.78
2023-05-10T08:58:59.382Z,15.88
2023-05-10T08:59:59.433Z,15.92
2023-05-10T09:00:59.548Z,15.86
2023-05-10T09:01:59.633Z,15.81
2023-05-10T09:02:59.756Z,15.87
2023-05-10T09:04:00.366Z,15.91
2023-05-10T09:04:59.990Z,15.85
2023-05-10T09:05:59.949Z,15.73
2023-05-10T09:07:00.041Z,15.65
2023-05-10T09:08:00.166Z,15.57
2023-05-10T09:09:00.246Z,15.42
2023-05-10T09:10:00.361Z,15.30
2023-05-10T09:11:00.360Z,15.17
2023-05-10T09:12:00.462Z,15.04
2023-05-10T09:13:00.546Z,14.97
2023-05-10T09:14:00.671Z,14.89
2023-05-10T09:15:00.708Z,14.80
2023-05-10T09:16:09.907Z,14.73
2023-05-10T09:17:00.892Z,14.69
2023-05-10T09:18:00.984Z,14.64
2023-05-10T09:19:01.105Z,14.57
2023-05-10T09:20:01.178Z,14.48
2023-05-10T09:21:01.209Z,14.45
2023-05-10T09:22:02.071Z,14.43
2023-05-10T09:23:01.357Z,14.38
2023-05-10T09:24:01.510Z,14.30
2023-05-10T09:25:01.533Z,14.23
2023-05-10T09:26:01.618Z,14.20
2023-05-10T09:27:01.731Z,14.24
2023-05-10T09:28:01.810Z,14.22
2023-05-10T09:29:01.902Z,14.18
2023-05-10T09:30:01.985Z,14.19
2023-05-10T09:31:02.067Z,14.20
2023-05-10T09:32:02.130Z,14.13
2023-05-10T09:33:02.285Z,13.93
2023-05-10T09:34:02.299Z,13.68
2023-05-10T09:35:02.412Z,13.49
2023-05-10T09:36:02.469Z,13.36
2023-05-10T09:37:02.576Z,13.21
2023-05-10T09:38:02.584Z,13.07
2023-05-10T09:39:02.696Z,13.00
2023-05-10T09:40:02.809Z,12.96
2023-05-10T09:41:02.880Z,12.91
2023-05-10T09:42:02.941Z,12.84
2023-05-10T09:43:03.023Z,12.78
2023-05-10T09:44:03.103Z,12.76
2023-05-10T09:45:03.197Z,12.73
2023-05-10T09:46:03.332Z,12.72
2023-05-10T09:47:03.428Z,12.68
2023-05-10T09:48:03.516Z,12.61
2023-05-10T09:49:03.523Z,12.55
2023-05-10T09:50:03.593Z,12.51
2023-05-10T09:51:03.661Z,12.50
2023-05-10T09:52:03.790Z,12.47
2023-05-10T09:53:03.780Z,12.43
2023-05-10T09:54:03.874Z,12.38
2023-05-10T09:55:03.954Z,12.34
2023-05-10T09:56:04.049Z,12.35
2023-05-10T09:57:04.132Z,12.34
2023-05-10T09:58:04.220Z,12.31
2023-05-10T09:59:04.314Z,12.31
2023-05-10T10:00:04.378Z,12.28
2023-05-10T10:01:04.480Z,12.25
2023-05-10T10:02:04.664Z,12.25
2023-05-10T10:03:04.674Z,12.25
2023-05-10T10:04:04.772Z,12.26
2023-05-10T10:05:04.929Z,12.26
2023-05-10T10:06:04.926Z,12.27
2023-05-10T10:07:05.124Z,12.28
2023-05-10T10:08:05.017Z,12.27
2023-05-10T10:09:05.114Z,12.26
2023-05-10T10:10:05.197Z,12.25
2023-05-10T10:11:05.265Z,12.24
2023-05-10T10:12:05.362Z,12.22
2023-05-10T10:13:05.425Z,12.22
2023-05-10T10:14:05.479Z,12.24
2023-05-10T10:15:05.602Z,12.25
2023-05-10T10:16:05.662Z,12.25
2023-05-10T10:17:08.684Z,12.24
2023-05-10T10:18:05.932Z,12.25
2023-05-10T10:19:06.002Z,12.27
2023-05-10T10:20:05.963Z,12.29
2023-05-10T10:21:06.024Z,12.31
2023-05-10T10:22:06.159Z,12.35
2023-05-10T10:23:06.162Z,12.37
2023-05-10T10:24:06.261Z,12.39
2023-05-10T10:25:06.357Z,12.43
2023-05-10T10:26:06.448Z,12.46
2023-05-10T10:27:06.539Z,12.47
2023-05-10T10:28:06.610Z,12.48
2023-05-10T10:29:06.670Z,12.50
2023-05-10T10:30:06.755Z,12.56
2023-05-10T10:31:06.882Z,12.63
2023-05-10T10:32:06.908Z,12.70
2023-05-10T10:33:16.590Z,12.75
2023-05-10T10:34:07.065Z,12.77
2023-05-10T10:35:07.119Z,12.81
2023-05-10T10:36:07.214Z,12.87
2023-05-10T10:37:07.304Z,12.90
2023-05-10T10:38:07.398Z,12.94
2023-05-10T10:39:07.506Z,12.98
2023-05-10T10:40:07.562Z,13.06
2023-05-10T10:41:07.649Z,13.15
2023-05-10T10:42:07.738Z,13.21
2023-05-10T10:43:07.844Z,13.24
2023-05-10T10:44:07.906Z,13.29
2023-05-10T10:45:07.967Z,13.36
2023-05-10T10:46:08.028Z,13.39
2023-05-10T10:47:08.203Z,13.43
2023-05-10T10:48:08.230Z,13.49
2023-05-10T10:49:08.286Z,13.52
2023-05-10T10:50:08.379Z,13.56
2023-05-10T10:51:10.092Z,13.63
2023-05-10T10:52:08.510Z,13.72
2023-05-10T10:53:08.649Z,13.79
2023-05-10T10:54:08.697Z,13.80
2023-05-10T10:55:08.774Z,13.76
2023-05-10T10:56:08.895Z,13.72
2023-05-10T10:57:08.944Z,13.69
2023-05-10T10:58:09.004Z,13.70
2023-05-10T10:59:09.129Z,13.75
2023-05-10T11:00:09.188Z,13.80
2023-05-10T11:01:09.301Z,13.80
2023-05-10T11:02:09.374Z,13.76
2023-05-10T11:03:09.492Z,13.72
2023-05-10T11:04:09.557Z,13.67
2023-05-10T11:05:09.592Z,13.64
2023-05-10T11:06:09.668Z,13.62
2023-05-10T11:07:09.738Z,13.58
2023-05-10T11:08:09.883Z,13.50
2023-05-10T11:09:09.914Z,13.47
2023-05-10T11:10:10.009Z,13.50
2023-05-10T11:11:10.158Z,13.57
2023-05-10T11:12:10.183Z,13.64
2023-05-10T11:13:11.022Z,13.70
2023-05-10T11:14:10.399Z,13.77
2023-05-10T11:15:10.424Z,13.83
2023-05-10T11:16:10.594Z,13.87
2023-05-10T11:17:10.785Z,13.91
2023-05-10T11:18:10.734Z,13.94
2023-05-10T11:19:10.893Z,13.93
2023-05-10T11:20:10.877Z,13.91
2023-05-10T11:21:10.940Z,13.86
2023-05-10T11:22:11.008Z,13.78
2023-05-10T11:23:11.115Z,13.70
2023-05-10T11:24:11.196Z,13.64
2023-05-10T11:25:11.295Z,13.58
2023-05-10T11:26:11.436Z,13.54
2023-05-10T11:27:11.463Z,13.52
2023-05-10T11:28:11.557Z,13.52
2023-05-10T11:29:11.675Z,13.51
2023-05-10T11:30:11.744Z,13.53
2023-05-10T11:31:11.837Z,13.59
2023-05-10T11:32:11.903Z,13.68
2023-05-10T11:33:11.966Z,13.79
2023-05-10T11:34:12.083Z,13.85
2023-05-10T11:35:12.156Z,13.87
2023-05-10T11:36:12.217Z,13.90
2023-05-10T11:37:12.313Z,13.90
2023-05-10T11:38:12.419Z,13.86
2023-05-10T11:39:12.480Z,13.79
2023-05-10T11:40:12.546Z,13.71
2023-05-10T11:41:12.605Z,13.66
2023-05-10T11:42:12.657Z,13.66
2023-05-10T11:43:12.756Z,13.69
2023-05-10T11:44:12.811Z,13.73
2023-05-10T11:45:12.865Z,13.77
2023-05-10T11:46:13.053Z,13.78
2023-05-10T11:47:13.045Z,13.76
2023-05-10T11:48:13.121Z,13.74
2023-05-10T11:49:13.177Z,13.74
2023-05-10T11:50:13.327Z,13.76
2023-05-10T11:51:13.365Z,13.81
2023-05-10T11:52:13.417Z,13.90
2023-05-10T11:53:14.031Z,13.96
2023-05-10T11:54:13.664Z,14.03
2023-05-10T11:55:13.629Z,14.09
2023-05-10T11:56:13.696Z,14.11
2023-05-10T11:57:13.746Z,14.10
2023-05-10T11:58:13.846Z,14.07
2023-05-10T11:59:13.943Z,14.04
2023-05-10T12:00:14.069Z,14.02
2023-05-10T12:01:14.126Z,14.04
2023-05-10T12:02:14.187Z,14.09
2023-05-10T12:03:14.349Z,14.15
2023-05-10T12:04:14.512Z,14.21
2023-05-10T12:05:14.442Z,14.26
2023-05-10T12:06:14.490Z,14.28
2023-05-10T12:07:14.582Z,14.29
2023-05-10T12:08:14.686Z,14.29
2023-05-10T12:09:14.734Z,14.30
2023-05-10T12:10:14.885Z,14.32
2023-05-10T12:11:14.925Z,14.38
2023-05-10T12:12:14.988Z,14.45
2023-05-10T12:13:15.120Z,14.48
2023-05-10T12:14:15.126Z,14.49
2023-05-10T12:15:15.183Z,14.49
2023-05-10T12:16:15.378Z,14.45
2023-05-10T12:17:15.361Z,14.40
2023-05-10T12:18:15.469Z,14.35
2023-05-10T12:19:15.544Z,14.28
2023-05-10T12:20:16.002Z,14.24
2023-05-10T12:21:15.730Z,14.20
2023-05-10T12:22:15.841Z,14.18
2023-05-10T12:23:15.919Z,14.18
2023-05-10T12:24:15.977Z,14.20
2023-05-10T12:25:16.022Z,14.21
2023-05-10T12:26:16.110Z,14.21
2023-05-10T12:27:16.222Z,14.23
2023-05-10T12:28:16.287Z,14.26
2023-05-10T12:29:16.377Z,14.23
2023-05-10T12:30:16.652Z,14.21
2023-05-10T12:31:16.565Z,14.25
2023-05-10T12:32:16.698Z,14.31
2023-05-10T12:33:16.737Z,14.37
2023-05-10T12:34:16.796Z,14.44
2023-05-10T12:35:16.887Z,14.49
2023-05-10T12:36:16.938Z,14.55
2023-05-10T12:37:17.036Z,14.61
2023-05-10T12:38:17.107Z,14.63
2023-05-10T12:39:17.173Z,14.65
2023-05-10T12:40:17.430Z,14.66
2023-05-10T12:41:17.422Z,14.67
2023-05-10T12:42:17.462Z,14.68
2023-05-10T12:43:17.548Z,14.66
2023-05-10T12:44:17.603Z,14.63
2023-05-10T12:45:17.700Z,14.62
2023-05-10T12:46:17.878Z,14.63
2023-05-10T12:47:17.875Z,14.68
2023-05-10T12:48:17.973Z,14.73
2023-05-10T12:49:18.063Z,14.75
2023-05-10T12:50:18.320Z,14.76
2023-05-10T12:51:18.398Z,14.75
2023-05-10T12:52:18.257Z,14.76
2023-05-10T12:53:18.372Z,14.77
2023-05-10T12:54:18.426Z,14.78
2023-05-10T12:55:18.523Z,14.82
2023-05-10T12:56:18.614Z,14.87
2023-05-10T12:57:18.693Z,14.94
2023-05-10T12:58:34.260Z,15.00
2023-05-10T12:59:18.847Z,15.05
2023-05-10T13:00:24.993Z,15.11
2023-05-10T13:01:19.032Z,15.13
2023-05-10T13:02:19.090Z,15.13
2023-05-10T13:03:19.173Z,15.15
2023-05-10T13:04:19.254Z,15.15